createdAt,value
2019-04-22T00:02:07.998Z,5.37
2019-04-22T00:04:49.782Z,5.22
2019-04-22T00:07:29.232Z,5.37
2019-04-22T00:10:06.370Z,5.65
2019-04-22T00:15:08.654Z,4.85
2019-04-22T00:20:08.705Z,4.72
2019-04-22T00:22:38.688Z,4.83
2019-04-22T00:25:11.861Z,4.30
2019-04-22T00:27:47.691Z,4.62
2019-04-22T00:30:16.493Z,4.92
2019-04-22T00:32:50.122Z,4.87
2019-04-22T00:35:23.807Z,4.60
2019-04-22T00:38:03.731Z,4.70
2019-04-22T00:40:38.418Z,4.47
2019-04-22T00:42:59.880Z,4.70
2019-04-22T00:45:39.947Z,4.08
2019-04-22T00:48:14.445Z,3.85
2019-04-22T00:50:37.065Z,4.37
2019-04-22T00:53:11.615Z,4.97
2019-04-22T00:56:00.616Z,5.65
2019-04-22T00:58:32.413Z,5.72
2019-04-22T01:01:09.083Z,5.10
2019-04-22T01:03:44.737Z,5.50
2019-04-22T01:06:12.710Z,5.75
2019-04-22T01:08:46.619Z,5.83
2019-04-22T01:11:11.280Z,5.70
2019-04-22T01:13:38.730Z,5.62
2019-04-22T01:16:12.774Z,5.45
2019-04-22T01:18:46.175Z,4.78
2019-04-22T01:21:24.328Z,4.62
2019-04-22T01:23:49.104Z,5.33
2019-04-22T01:26:18.614Z,5.22
2019-04-22T01:28:48.951Z,4.75
2019-04-22T01:31:08.391Z,4.30
2019-04-22T01:33:40.117Z,4.50
2019-04-22T01:36:25.911Z,4.70
2019-04-22T01:38:58.284Z,4.75
2019-04-22T01:41:45.383Z,4.70
2019-04-22T01:44:14.609Z,4.60
2019-04-22T01:46:42.572Z,5.00
2019-04-22T01:49:13.072Z,4.50
2019-04-22T01:51:52.930Z,5.00
2019-04-22T01:54:12.583Z,4.75
2019-04-22T01:56:40.865Z,4.58
2019-04-22T01:59:06.238Z,4.72
2019-04-22T02:04:24.044Z,4.53
2019-04-22T02:06:48.490Z,4.58
2019-04-22T02:09:24.494Z,4.78
2019-04-22T02:11:58.539Z,5.08
2019-04-22T02:14:19.961Z,4.80
2019-04-22T02:16:57.029Z,5.33
2019-04-22T02:19:37.304Z,4.95
2019-04-22T02:21:56.168Z,5.22
2019-04-22T02:24:26.471Z,5.45
2019-04-22T02:26:58.195Z,5.28
2019-04-22T02:29:32.875Z,4.92
2019-04-22T02:32:12.864Z,5.05
2019-04-22T02:37:04.987Z,5.25
2019-04-22T02:42:19.533Z,5.25
2019-04-22T02:44:42.839Z,4.90
2019-04-22T02:47:17.956Z,5.12
2019-04-22T02:52:17.744Z,4.70
2019-04-22T02:54:49.436Z,4.75
2019-04-22T02:57:31.882Z,4.85
2019-04-22T03:04:55.628Z,4.87
2019-04-22T03:07:25.977Z,4.78
2019-04-22T03:09:54.957Z,4.65
2019-04-22T03:12:23.510Z,4.97
2019-04-22T03:15:07.825Z,4.45
2019-04-22T03:17:29.282Z,5.05
2019-04-22T03:22:27.975Z,4.60
2019-04-22T03:25:32.352Z,4.78
2019-04-22T03:27:29.928Z,4.53
2019-04-22T03:33:06.323Z,5.08
2019-04-22T03:40:22.335Z,5.20
2019-04-22T03:45:27.162Z,5.22
2019-04-22T03:48:05.430Z,5.37
2019-04-22T03:50:28.045Z,5.25
2019-04-22T03:53:01.927Z,4.53
2019-04-22T03:57:53.967Z,4.70
2019-04-22T04:03:00.990Z,5.40
2019-04-22T04:05:41.775Z,4.05
2019-04-22T04:13:17.709Z,4.97
2019-04-22T04:15:32.806Z,5.17
2019-04-22T04:20:45.081Z,4.70
2019-04-22T04:23:25.938Z,4.62
2019-04-22T04:25:50.302Z,4.83
2019-04-22T04:30:42.844Z,5.08
2019-04-22T04:36:03.386Z,5.10
2019-04-22T04:38:38.915Z,4.70
2019-04-22T04:45:55.476Z,4.03
2019-04-22T04:48:34.850Z,4.45
2019-04-22T04:51:08.712Z,4.20
2019-04-22T04:53:24.772Z,3.77
2019-04-22T04:56:03.161Z,3.83
2019-04-22T04:58:46.995Z,4.45
2019-04-22T05:03:39.250Z,4.20
2019-04-22T05:06:10.676Z,4.45
2019-04-22T05:08:52.850Z,3.65
2019-04-22T05:11:10.886Z,3.80
2019-04-22T05:16:28.527Z,3.70
2019-04-22T05:18:52.956Z,3.33
2019-04-22T05:23:48.827Z,4.40
2019-04-22T05:26:17.580Z,3.87
2019-04-22T05:28:35.613Z,4.08
2019-04-22T05:31:16.318Z,3.80
2019-04-22T05:33:41.209Z,3.62
2019-04-22T05:36:12.708Z,4.50
2019-04-22T05:38:49.521Z,4.50
2019-04-22T05:41:16.249Z,4.25
2019-04-22T05:43:50.299Z,5.25
2019-04-22T05:46:18.447Z,4.70
2019-04-22T05:48:54.114Z,5.22
2019-04-22T05:51:21.687Z,5.28
2019-04-22T05:53:57.486Z,5.40
2019-04-22T05:56:37.175Z,5.83
2019-04-22T05:58:58.839Z,4.85
2019-04-22T06:04:04.314Z,4.95
2019-04-22T06:06:25.651Z,4.95
2019-04-22T06:11:29.875Z,5.03
2019-04-22T06:13:57.607Z,4.70
2019-04-22T06:16:38.116Z,7.25
2019-04-22T06:19:07.462Z,12.15
2019-04-22T06:21:37.040Z,10.72
2019-04-22T06:24:16.748Z,12.95
2019-04-22T06:29:16.611Z,9.10
2019-04-22T06:32:03.805Z,6.65
2019-04-22T06:34:17.917Z,6.08
2019-04-22T06:36:52.233Z,5.17
2019-04-22T06:39:26.461Z,5.00
2019-04-22T06:46:52.373Z,3.75
2019-04-22T06:49:23.839Z,4.25
2019-04-22T06:51:55.600Z,3.42
2019-04-22T06:54:28.984Z,3.50
2019-04-22T06:56:58.034Z,3.92
2019-04-22T07:02:08.236Z,3.47
2019-04-22T07:04:29.680Z,3.50
2019-04-22T07:07:02.325Z,3.67
2019-04-22T07:09:42.899Z,3.42
2019-04-22T07:12:09.469Z,3.80
2019-04-22T07:14:37.124Z,3.60
2019-04-22T07:17:07.384Z,3.27
2019-04-22T07:19:40.603Z,3.80
2019-04-22T07:22:19.962Z,4.05
2019-04-22T07:27:10.565Z,3.95
2019-04-22T07:29:46.761Z,3.77
2019-04-22T07:32:18.617Z,4.90
2019-04-22T07:34:49.270Z,4.10
2019-04-22T07:37:29.598Z,4.83
2019-04-22T07:39:45.839Z,4.30
2019-04-22T07:42:19.014Z,4.83
2019-04-22T07:44:53.233Z,4.33
2019-04-22T07:47:29.670Z,4.28
2019-04-22T07:49:54.245Z,4.50
2019-04-22T07:52:23.171Z,4.00
2019-04-22T07:54:58.345Z,4.80
2019-04-22T07:57:41.309Z,4.78
2019-04-22T08:00:02.984Z,4.60
2019-04-22T08:02:34.123Z,4.62
2019-04-22T08:05:07.464Z,5.83
2019-04-22T08:07:34.601Z,4.60
2019-04-22T08:10:09.472Z,4.62
2019-04-22T08:12:39.213Z,4.55
2019-04-22T08:15:10.668Z,5.10
2019-04-22T08:20:14.053Z,4.62
2019-04-22T08:22:46.168Z,4.85
2019-04-22T08:25:10.389Z,5.20
2019-04-22T08:27:43.372Z,5.05
2019-04-22T08:32:46.038Z,5.28
2019-04-22T08:35:20.270Z,4.92
2019-04-22T08:37:51.190Z,4.47
2019-04-22T08:40:21.042Z,5.33
2019-04-22T08:42:58.662Z,5.67
2019-04-22T08:45:28.483Z,5.10
2019-04-22T08:47:51.271Z,5.47
2019-04-22T08:52:58.754Z,5.97
2019-04-22T08:58:16.729Z,5.45
2019-04-22T09:00:32.238Z,5.15
2019-04-22T09:06:02.825Z,5.35
2019-04-22T09:08:09.401Z,5.47
2019-04-22T09:10:39.330Z,5.28
2019-04-22T09:13:20.579Z,5.75
2019-04-22T09:18:16.066Z,5.72
2019-04-22T09:20:48.597Z,6.22
2019-04-22T09:23:17.601Z,8.05
2019-04-22T09:26:05.044Z,6.08
2019-04-22T09:28:17.524Z,4.90
2019-04-22T09:33:20.815Z,8.35
2019-04-22T09:36:00.036Z,5.65
2019-04-22T09:38:32.951Z,5.78
2019-04-22T09:40:54.743Z,5.45
2019-04-22T09:43:32.430Z,6.20
2019-04-22T09:45:57.476Z,5.85
2019-04-22T09:51:00.440Z,6.42
2019-04-22T09:53:37.601Z,7.62
2019-04-22T09:56:03.860Z,7.03
2019-04-22T09:58:39.462Z,8.38
2019-04-22T10:03:51.714Z,8.38
2019-04-22T10:06:22.502Z,8.30
2019-04-22T10:11:31.038Z,8.93
2019-04-22T10:14:03.905Z,8.80
2019-04-22T10:16:35.758Z,9.73
2019-04-22T10:19:01.027Z,8.90
2019-04-22T10:21:35.336Z,10.85
2019-04-22T10:26:34.849Z,11.48
2019-04-22T10:29:06.925Z,10.70
2019-04-22T10:31:41.141Z,9.78
2019-04-22T10:33:56.031Z,10.03
2019-04-22T10:36:11.096Z,9.85
2019-04-22T10:38:42.123Z,9.38
2019-04-22T10:41:12.410Z,11.73
2019-04-22T10:43:43.270Z,10.95
2019-04-22T10:46:13.889Z,9.85
2019-04-22T10:48:45.903Z,9.80
2019-04-22T10:51:16.899Z,9.10
2019-04-22T10:53:47.163Z,10.32
2019-04-22T10:56:16.992Z,9.30
2019-04-22T10:58:46.760Z,9.75
2019-04-22T11:01:17.852Z,14.78
2019-04-22T11:03:49.116Z,12.82
2019-04-22T11:06:19.221Z,16.32
2019-04-22T11:08:55.470Z,10.10
2019-04-22T11:11:32.626Z,12.80
2019-04-22T11:13:51.915Z,12.63
2019-04-22T11:16:21.679Z,11.45
2019-04-22T11:18:51.750Z,12.33
2019-04-22T11:21:21.559Z,10.58
2019-04-22T11:23:52.390Z,10.70
2019-04-22T11:26:23.770Z,11.20
2019-04-22T11:28:53.967Z,11.18
2019-04-22T11:31:24.210Z,12.13
2019-04-22T11:33:54.439Z,11.08
2019-04-22T11:36:28.290Z,13.75
2019-04-22T11:39:01.913Z,16.15
2019-04-22T11:41:29.472Z,10.50
2019-04-22T11:43:59.196Z,9.05
2019-04-22T11:46:29.551Z,9.25
2019-04-22T11:49:00.260Z,9.63
2019-04-22T11:51:31.787Z,10.72
2019-04-22T11:54:03.045Z,9.25
2019-04-22T11:56:32.646Z,9.25
2019-04-22T11:59:02.759Z,9.95
2019-04-22T12:01:32.910Z,9.98
2019-04-22T12:04:03.972Z,8.00
2019-04-22T12:06:33.851Z,8.80
2019-04-22T12:09:07.751Z,7.37
2019-04-22T12:11:38.516Z,8.10
2019-04-22T12:14:09.754Z,7.33
2019-04-22T12:16:41.290Z,7.95
2019-04-22T12:19:11.347Z,7.67
2019-04-22T12:21:41.338Z,7.65
2019-04-22T12:24:11.169Z,7.28
2019-04-22T12:26:42.192Z,7.65
2019-04-22T12:29:13.244Z,7.20
2019-04-22T12:31:43.241Z,6.97
2019-04-22T12:34:13.307Z,7.37
2019-04-22T12:36:44.488Z,7.12
2019-04-22T12:39:15.549Z,7.50
2019-04-22T12:41:46.370Z,7.80
2019-04-22T12:44:16.055Z,7.70
2019-04-22T12:46:46.179Z,8.03
2019-04-22T12:49:16.277Z,8.20
2019-04-22T12:51:47.361Z,7.78
2019-04-22T12:54:17.155Z,6.67
2019-04-22T12:56:47.964Z,7.55
2019-04-22T12:59:17.734Z,7.62
2019-04-22T13:01:48.815Z,6.92
2019-04-22T13:04:21.709Z,7.30
2019-04-22T13:06:51.023Z,6.72
2019-04-22T13:09:21.235Z,8.33
2019-04-22T13:11:51.141Z,7.97
2019-04-22T13:14:21.111Z,7.37
2019-04-22T13:16:51.195Z,7.80
2019-04-22T13:19:22.986Z,7.15
2019-04-22T13:21:52.161Z,7.78
2019-04-22T13:24:21.817Z,7.40
2019-04-22T13:26:52.978Z,8.68
2019-04-22T13:29:23.232Z,7.67
2019-04-22T13:31:53.151Z,7.78
2019-04-22T13:34:32.952Z,8.13
2019-04-22T13:36:54.951Z,8.15
2019-04-22T13:39:25.065Z,7.97
2019-04-22T13:42:00.457Z,7.15
2019-04-22T13:44:26.234Z,7.97
2019-04-22T13:47:14.604Z,7.75
2019-04-22T13:50:01.298Z,7.47
2019-04-22T13:54:57.933Z,7.22
2019-04-22T13:57:19.981Z,7.78
2019-04-22T13:59:38.935Z,7.67
2019-04-22T14:02:24.401Z,7.83
2019-04-22T14:04:54.955Z,7.40
2019-04-22T14:07:25.142Z,7.00
2019-04-22T14:09:56.087Z,6.70
2019-04-22T14:12:26.687Z,7.40
2019-04-22T14:14:58.264Z,8.05
2019-04-22T14:17:29.291Z,8.13
2019-04-22T14:20:00.343Z,7.60
2019-04-22T14:22:30.567Z,8.15
2019-04-22T14:25:00.657Z,7.03
2019-04-22T14:27:40.724Z,7.30
2019-04-22T14:30:02.902Z,7.83
2019-04-22T14:32:36.059Z,8.13
2019-04-22T14:35:11.248Z,7.17
2019-04-22T14:37:42.473Z,7.15
2019-04-22T14:40:14.673Z,6.78
2019-04-22T14:43:05.933Z,7.08
2019-04-22T14:45:55.053Z,6.62
2019-04-22T14:48:11.030Z,6.37
2019-04-22T14:50:40.515Z,7.17
2019-04-22T14:53:08.072Z,7.17
2019-04-22T14:55:26.897Z,6.37
2019-04-22T14:57:53.380Z,6.87
2019-04-22T15:00:24.141Z,7.65
2019-04-22T15:02:55.477Z,7.10
2019-04-22T15:05:26.074Z,7.35
2019-04-22T15:07:57.069Z,8.38
2019-04-22T15:10:28.202Z,7.05
2019-04-22T15:13:00.551Z,7.53
2019-04-22T15:15:34.641Z,6.45
2019-04-22T15:18:07.885Z,6.47
2019-04-22T15:20:43.681Z,7.20
2019-04-22T15:23:14.721Z,7.80
2019-04-22T15:25:44.561Z,6.53
2019-04-22T15:28:15.252Z,6.37
2019-04-22T15:30:47.727Z,6.45
2019-04-22T15:33:17.613Z,6.53
2019-04-22T15:35:47.361Z,6.72
2019-04-22T15:38:17.439Z,6.10
2019-04-22T15:40:49.029Z,6.30
2019-04-22T15:43:18.716Z,6.70
2019-04-22T15:45:48.562Z,6.70
2019-04-22T15:48:18.815Z,6.62
2019-04-22T15:50:48.908Z,5.92
2019-04-22T15:53:20.080Z,6.95
2019-04-22T15:55:50.737Z,6.85
2019-04-22T15:58:21.604Z,7.70
2019-04-22T16:01:01.811Z,6.85
2019-04-22T16:03:24.750Z,6.67
2019-04-22T16:05:54.667Z,6.83
2019-04-22T16:08:24.727Z,7.20
2019-04-22T16:10:55.711Z,8.48
2019-04-22T16:13:29.300Z,6.72
2019-04-22T16:15:58.496Z,7.00
2019-04-22T16:18:30.552Z,6.62
2019-04-22T16:21:00.515Z,7.15
2019-04-22T16:23:36.258Z,8.58
2019-04-22T16:26:09.328Z,6.90
2019-04-22T16:28:39.682Z,6.95
2019-04-22T16:31:09.586Z,6.83
2019-04-22T16:33:41.775Z,7.12
2019-04-22T16:36:11.175Z,7.75
2019-04-22T16:38:40.906Z,7.45
2019-04-22T16:41:12.735Z,7.87
2019-04-22T16:43:42.925Z,7.62
2019-04-22T16:46:13.864Z,7.22
2019-04-22T16:48:43.817Z,7.08
2019-04-22T16:51:13.899Z,7.12
2019-04-22T16:53:45.133Z,6.90
2019-04-22T16:56:16.948Z,7.45
2019-04-22T16:58:46.743Z,7.45
2019-04-22T17:01:34.772Z,7.72
2019-04-22T17:04:06.926Z,7.65
2019-04-22T17:06:39.408Z,8.10
2019-04-22T17:09:10.898Z,7.72
2019-04-22T17:11:40.927Z,8.35
2019-04-22T17:14:11.297Z,7.45
2019-04-22T17:16:42.088Z,7.30
2019-04-22T17:19:13.134Z,7.12
2019-04-22T17:21:43.690Z,7.67
2019-04-22T17:24:14.001Z,7.05
2019-04-22T17:26:44.227Z,7.83
2019-04-22T17:29:14.909Z,7.78
2019-04-22T17:31:50.937Z,7.60
2019-04-22T17:34:15.879Z,7.87
2019-04-22T17:36:46.279Z,7.90
2019-04-22T17:39:30.251Z,7.92
2019-04-22T17:42:11.446Z,7.53
2019-04-22T17:44:54.280Z,8.33
2019-04-22T17:47:23.456Z,8.50
2019-04-22T17:50:08.565Z,8.70
2019-04-22T17:52:51.098Z,9.15
2019-04-22T17:55:07.573Z,9.13
2019-04-22T17:57:33.035Z,9.08
2019-04-22T18:00:10.122Z,9.80
2019-04-22T18:02:36.169Z,8.93
2019-04-22T18:04:56.224Z,9.30
2019-04-22T18:07:47.527Z,9.18
2019-04-22T18:10:33.033Z,8.48
2019-04-22T18:12:53.421Z,9.38
2019-04-22T18:15:17.826Z,9.03
2019-04-22T18:17:54.282Z,8.90
2019-04-22T18:20:21.010Z,8.45
2019-04-22T18:22:45.613Z,8.95
2019-04-22T18:25:24.594Z,8.95
2019-04-22T18:28:07.425Z,9.40
2019-04-22T18:30:24.182Z,8.75
2019-04-22T18:33:04.215Z,8.33
2019-04-22T18:35:33.981Z,9.03
2019-04-22T18:38:11.898Z,8.75
2019-04-22T18:40:38.433Z,8.93
2019-04-22T18:43:13.599Z,9.18
2019-04-22T18:45:59.905Z,9.85
2019-04-22T18:48:06.482Z,8.80
2019-04-22T18:50:52.929Z,9.18
2019-04-22T18:53:33.113Z,9.90
2019-04-22T18:55:56.934Z,10.38
2019-04-22T18:58:24.969Z,9.68
2019-04-22T19:00:48.234Z,9.43
2019-04-22T19:03:26.312Z,10.32
2019-04-22T19:06:27.585Z,9.33
2019-04-22T19:08:50.276Z,9.78
2019-04-22T19:11:17.369Z,9.33
2019-04-22T19:16:30.949Z,8.38
2019-04-22T19:19:18.541Z,9.60
2019-04-22T19:21:46.473Z,8.95
2019-04-22T19:23:54.498Z,9.08
2019-04-22T19:26:41.127Z,9.28
2019-04-22T19:29:01.057Z,9.25
2019-04-22T19:31:34.773Z,10.23
2019-04-22T19:34:11.010Z,9.20
2019-04-22T19:36:45.119Z,8.40
2019-04-22T19:39:04.609Z,9.50
2019-04-22T19:41:40.753Z,9.30
2019-04-22T19:44:17.644Z,8.38
2019-04-22T19:46:55.831Z,8.88
2019-04-22T19:49:29.043Z,7.80
2019-04-22T19:51:57.300Z,8.20
2019-04-22T19:54:24.753Z,8.28
2019-04-22T19:56:48.541Z,7.70
2019-04-22T19:59:20.809Z,7.92
2019-04-22T20:02:00.643Z,8.45
2019-04-22T20:04:41.694Z,8.98
2019-04-22T20:07:11.191Z,8.35
2019-04-22T20:09:43.775Z,7.92
2019-04-22T20:12:11.715Z,8.45
2019-04-22T20:14:44.976Z,8.90
2019-04-22T20:17:24.227Z,9.40
2019-04-22T20:22:17.623Z,8.23
2019-04-22T20:24:47.174Z,8.95
2019-04-22T20:27:30.308Z,8.15
2019-04-22T20:29:59.327Z,8.45
2019-04-22T20:35:02.981Z,8.55
2019-04-22T20:37:38.573Z,9.73
2019-04-22T20:40:09.126Z,8.55
2019-04-22T20:42:43.589Z,8.40
2019-04-22T20:45:10.251Z,8.58
2019-04-22T20:47:34.482Z,9.13
2019-04-22T20:50:14.113Z,9.33
2019-04-22T20:52:53.997Z,9.60
2019-04-22T20:55:13.100Z,8.55
2019-04-22T20:57:53.035Z,8.53
2019-04-22T21:00:20.172Z,9.40
2019-04-22T21:02:46.964Z,9.78
2019-04-22T21:05:19.618Z,8.25
2019-04-22T21:08:08.380Z,9.10
2019-04-22T21:10:23.127Z,9.30
2019-04-22T21:13:00.113Z,8.83
2019-04-22T21:15:39.573Z,9.33
2019-04-22T21:18:05.555Z,8.33
2019-04-22T21:20:43.318Z,9.75
2019-04-22T21:23:14.646Z,9.33
2019-04-22T21:25:29.195Z,9.20
2019-04-22T21:28:19.722Z,10.40
2019-04-22T21:30:45.283Z,9.70
2019-04-22T21:33:13.490Z,10.50
2019-04-22T21:36:06.761Z,10.43
2019-04-22T21:38:25.199Z,10.50
2019-04-22T21:40:48.869Z,8.70
2019-04-22T21:43:24.499Z,9.98
2019-04-22T21:45:53.068Z,10.00
2019-04-22T21:48:31.155Z,10.43
2019-04-22T21:50:59.897Z,9.78
2019-04-22T21:53:33.568Z,10.70
2019-04-22T21:56:13.036Z,10.53
2019-04-22T21:58:31.268Z,11.45
2019-04-22T22:01:33.592Z,11.43
2019-04-22T22:03:55.552Z,12.23
2019-04-22T22:06:15.115Z,10.60
2019-04-22T22:08:56.863Z,11.88
2019-04-22T22:11:24.486Z,11.70
2019-04-22T22:13:56.427Z,12.33
2019-04-22T22:16:23.154Z,13.45
2019-04-22T22:19:03.281Z,12.63
2019-04-22T22:21:41.913Z,13.93
2019-04-22T22:24:10.120Z,13.70
2019-04-22T22:26:40.564Z,14.07
2019-04-22T22:29:11.889Z,14.38
2019-04-22T22:31:41.621Z,13.48
2019-04-22T22:34:13.943Z,13.20
2019-04-22T22:36:36.700Z,14.20
2019-04-22T22:39:04.016Z,14.73
2019-04-22T22:41:23.759Z,15.23
2019-04-22T22:44:03.224Z,14.58
2019-04-22T22:46:36.771Z,14.45
2019-04-22T22:49:20.514Z,14.28
2019-04-22T22:51:53.128Z,13.48
2019-04-22T22:54:23.649Z,12.50
2019-04-22T22:59:23.541Z,12.98
2019-04-22T23:01:51.484Z,11.53
2019-04-22T23:04:29.005Z,11.53
2019-04-22T23:07:06.720Z,11.57
2019-04-22T23:09:28.930Z,10.70
2019-04-22T23:14:32.259Z,10.63
2019-04-22T23:16:52.899Z,9.83
2019-04-22T23:19:15.579Z,11.85
2019-04-22T23:21:49.609Z,12.05
2019-04-22T23:24:54.457Z,12.05
2019-04-22T23:27:34.110Z,13.72
2019-04-22T23:30:04.055Z,14.65
2019-04-22T23:32:35.679Z,13.40
2019-04-22T23:35:22.649Z,15.45
2019-04-22T23:38:01.431Z,11.57
2019-04-22T23:40:34.427Z,10.48
2019-04-22T23:43:07.083Z,11.70
2019-04-22T23:45:34.954Z,10.35
2019-04-22T23:48:03.324Z,13.28
2019-04-22T23:50:38.871Z,11.25
2019-04-22T23:53:55.586Z,10.30
2019-04-22T23:56:17.497Z,11.85
2019-04-22T23:58:47.595Z,11.73
